createdAt,value
2022-07-30T00:02:19.168Z,100392.89
2022-07-30T00:04:50.551Z,100392.89
2022-07-30T00:07:20.991Z,100394.52
2022-07-30T00:09:51.427Z,100381.87
2022-07-30T00:12:22.381Z,100386.05
2022-07-30T00:14:53.060Z,100386.05
2022-07-30T00:17:24.064Z,100384.09
2022-07-30T00:19:55.649Z,100379.77
2022-07-30T00:22:27.310Z,100379.77
2022-07-30T00:24:57.873Z,100388.64
2022-07-30T00:27:28.951Z,100388.64
2022-07-30T00:29:59.422Z,100367.91
2022-07-30T00:32:30.370Z,100365.78
2022-07-30T00:35:00.992Z,100368.72
2022-07-30T00:37:31.447Z,100369.68
2022-07-30T00:40:03.616Z,100369.68
2022-07-30T00:42:42.671Z,100362.55
2022-07-30T00:45:15.251Z,100360.27
2022-07-30T00:47:46.439Z,100360.55
2022-07-30T00:50:24.561Z,100359.26
2022-07-30T00:52:56.154Z,100359.26
2022-07-30T00:55:26.751Z,100361.74
2022-07-30T00:57:57.727Z,100361.74
2022-07-30T01:00:29.116Z,100368.81
2022-07-30T01:03:01.889Z,100368.81
2022-07-30T01:05:32.717Z,100368.89
2022-07-30T01:08:03.215Z,100369.73
2022-07-30T01:10:34.235Z,100369.73
2022-07-30T01:13:05.645Z,100369.07
2022-07-30T01:15:37.274Z,100369.53
2022-07-30T01:18:11.949Z,100376.70
2022-07-30T01:21:06.209Z,100376.70
2022-07-30T01:23:41.910Z,100382.58
2022-07-30T01:26:18.282Z,100379.78
2022-07-30T01:28:51.545Z,100379.56
2022-07-30T01:31:24.177Z,100368.28
2022-07-30T01:33:57.176Z,100369.69
2022-07-30T01:36:30.323Z,100369.69
2022-07-30T01:39:02.776Z,100350.87
2022-07-30T01:41:35.277Z,100350.87
2022-07-30T01:44:07.041Z,100355.80
2022-07-30T01:46:39.718Z,100358.33
2022-07-30T01:49:11.940Z,100360.33
2022-07-30T01:51:45.208Z,100360.33
2022-07-30T01:54:17.520Z,100347.75
2022-07-30T01:56:51.331Z,100347.75
2022-07-30T01:59:23.202Z,100346.69
2022-07-30T02:01:54.419Z,100351.21
2022-07-30T02:04:25.002Z,100351.21
2022-07-30T02:07:16.781Z,100353.09
2022-07-30T02:09:55.751Z,100353.09
2022-07-30T02:12:27.616Z,100352.05
2022-07-30T02:15:10.155Z,100350.67
2022-07-30T02:17:45.128Z,100350.67
2022-07-30T02:20:18.993Z,100354.75
2022-07-30T02:22:53.523Z,100355.61
2022-07-30T02:25:26.368Z,100355.61
2022-07-30T02:28:00.640Z,100354.09
2022-07-30T02:30:36.113Z,100353.36
2022-07-30T02:33:10.597Z,100353.36
2022-07-30T02:35:42.281Z,100347.02
2022-07-30T02:38:15.957Z,100347.02
2022-07-30T02:40:46.847Z,100346.83
2022-07-30T02:43:18.677Z,100343.16
2022-07-30T02:45:49.984Z,100339.38
2022-07-30T02:48:34.676Z,100339.45
2022-07-30T02:50:58.843Z,100334.81
2022-07-30T02:53:31.204Z,100338.23
2022-07-30T02:56:03.432Z,100341.82
2022-07-30T02:58:37.791Z,100346.20
2022-07-30T03:01:11.603Z,100341.22
2022-07-30T03:03:46.724Z,100351.95
2022-07-30T03:06:23.308Z,100344.00
2022-07-30T03:08:55.002Z,100345.30
2022-07-30T03:11:27.138Z,100342.41
2022-07-30T03:13:58.620Z,100347.19
2022-07-30T03:16:31.152Z,100346.23
2022-07-30T03:19:06.244Z,100348.44
2022-07-30T03:21:40.489Z,100348.44
2022-07-30T03:24:14.113Z,100352.75
2022-07-30T03:26:46.957Z,100362.40
2022-07-30T03:29:24.823Z,100362.34
2022-07-30T03:31:56.498Z,100362.02
2022-07-30T03:34:28.084Z,100362.02
2022-07-30T03:37:02.307Z,100366.15
2022-07-30T03:39:39.382Z,100364.12
2022-07-30T03:42:10.759Z,100360.09
2022-07-30T03:44:44.238Z,100364.47
2022-07-30T03:47:15.907Z,100368.12
2022-07-30T03:49:46.665Z,100372.78
2022-07-30T03:52:38.309Z,100377.98
2022-07-30T03:55:14.914Z,100380.11
2022-07-30T03:57:45.299Z,100380.11
2022-07-30T04:00:18.139Z,100372.86
2022-07-30T04:02:50.396Z,100377.66
2022-07-30T04:05:21.907Z,100377.66
2022-07-30T04:07:52.995Z,100376.84
2022-07-30T04:10:24.744Z,100376.84
2022-07-30T04:12:55.798Z,100375.41
2022-07-30T04:16:05.715Z,100373.91
2022-07-30T04:18:01.651Z,100379.67
2022-07-30T04:20:39.563Z,100379.67
2022-07-30T04:23:12.313Z,100373.88
2022-07-30T04:25:44.668Z,100375.65
2022-07-30T04:28:16.009Z,100378.41
2022-07-30T04:30:47.077Z,100378.41
2022-07-30T04:33:18.145Z,100375.75
2022-07-30T04:35:52.363Z,100373.49
2022-07-30T04:38:23.080Z,100373.38
2022-07-30T04:40:53.877Z,100377.62
2022-07-30T04:43:24.909Z,100377.62
2022-07-30T04:45:56.456Z,100369.11
2022-07-30T04:48:26.964Z,100373.21
2022-07-30T04:51:01.571Z,100382.17
2022-07-30T04:53:34.977Z,100381.08
2022-07-30T04:56:07.325Z,100376.55
2022-07-30T04:58:38.918Z,100374.21
2022-07-30T05:01:10.850Z,100377.70
2022-07-30T05:03:41.867Z,100380.83
2022-07-30T05:06:14.686Z,100382.30
2022-07-30T05:08:45.810Z,100373.19
2022-07-30T05:11:19.127Z,100393.05
2022-07-30T05:13:50.163Z,100387.58
2022-07-30T05:16:23.664Z,100387.58
2022-07-30T05:18:55.906Z,100392.47
2022-07-30T05:21:29.024Z,100389.02
2022-07-30T05:23:59.278Z,100393.06
2022-07-30T05:26:29.804Z,100393.06
2022-07-30T05:29:02.901Z,100401.55
2022-07-30T05:31:51.078Z,100406.22
2022-07-30T05:34:21.630Z,100408.61
2022-07-30T05:36:52.121Z,100408.61
2022-07-30T05:39:24.183Z,100408.81
2022-07-30T05:41:55.218Z,100405.11
2022-07-30T05:44:27.677Z,100406.67
2022-07-30T05:47:04.190Z,100416.42
2022-07-30T05:49:41.118Z,100400.47
2022-07-30T05:52:14.792Z,100400.47
2022-07-30T05:54:48.178Z,100403.45
2022-07-30T05:57:21.194Z,100410.49
2022-07-30T05:59:51.628Z,100410.49
2022-07-30T06:02:29.194Z,100406.08
2022-07-30T06:05:19.420Z,100405.02
2022-07-30T06:07:56.246Z,100408.62
2022-07-30T06:16:27.974Z,100402.42
2022-07-30T06:19:06.138Z,100408.45
2022-07-30T06:22:06.203Z,100405.63
2022-07-30T06:24:25.526Z,100400.23
2022-07-30T06:29:58.109Z,100406.87
2022-07-30T06:32:31.881Z,100406.61
2022-07-30T06:35:05.109Z,100394.94
2022-07-30T06:38:00.661Z,100395.60
2022-07-30T06:40:22.097Z,100404.51
2022-07-30T06:42:54.769Z,100402.30
2022-07-30T06:45:25.925Z,100410.61
2022-07-30T06:48:00.489Z,100409.55
2022-07-30T06:50:32.006Z,100391.27
2022-07-30T06:53:03.106Z,100391.27
2022-07-30T06:55:35.188Z,100394.38
2022-07-30T06:58:25.389Z,100399.82
2022-07-30T07:00:52.245Z,100402.14
2022-07-30T07:03:24.564Z,100402.14
2022-07-30T07:06:02.176Z,100399.06
2022-07-30T07:08:36.332Z,100399.33
2022-07-30T07:11:07.373Z,100398.29
2022-07-30T07:13:38.441Z,100404.02
2022-07-30T07:16:08.920Z,100404.02
2022-07-30T07:18:39.983Z,100399.86
2022-07-30T07:21:11.112Z,100399.86
2022-07-30T07:23:45.351Z,100388.80
2022-07-30T07:26:16.925Z,100379.86
2022-07-30T07:28:47.895Z,100390.89
2022-07-30T07:32:05.676Z,100383.69
2022-07-30T07:33:51.792Z,100383.69
2022-07-30T07:36:24.239Z,100389.30
2022-07-30T07:38:54.744Z,100378.67
2022-07-30T07:41:28.770Z,100388.73
2022-07-30T07:43:59.359Z,100389.06
2022-07-30T07:46:33.503Z,100389.06
2022-07-30T07:49:03.573Z,100390.77
2022-07-30T07:51:48.109Z,100383.64
2022-07-30T07:54:21.123Z,100391.11
2022-07-30T07:56:42.213Z,100379.76
2022-07-30T07:59:13.664Z,100373.00
2022-07-30T08:01:47.200Z,100382.95
2022-07-30T08:04:20.457Z,100378.32
2022-07-30T08:06:54.559Z,100380.22
2022-07-30T08:09:43.902Z,100380.22
2022-07-30T08:12:05.294Z,100372.83
2022-07-30T08:14:37.029Z,100372.83
2022-07-30T08:17:08.972Z,100367.05
2022-07-30T08:19:41.349Z,100374.27
2022-07-30T08:22:13.754Z,100375.63
2022-07-30T08:24:44.865Z,100370.38
2022-07-30T08:27:17.524Z,100371.95
2022-07-30T08:29:49.569Z,100374.16
2022-07-30T08:32:20.258Z,100358.06
2022-07-30T08:34:57.419Z,100368.68
2022-07-30T08:37:27.763Z,100364.28
2022-07-30T08:39:59.348Z,100362.17
2022-07-30T08:42:31.302Z,100362.17
2022-07-30T08:45:03.297Z,100360.22
2022-07-30T08:47:34.947Z,100360.22
2022-07-30T08:50:08.014Z,100348.00
2022-07-30T08:52:40.461Z,100339.92
2022-07-30T08:55:14.133Z,100350.65
2022-07-30T08:57:45.197Z,100355.45
2022-07-30T09:00:17.779Z,100355.45
2022-07-30T09:02:48.822Z,100347.88
2022-07-30T09:05:26.714Z,100347.88
2022-07-30T09:07:59.319Z,100344.73
2022-07-30T09:10:36.557Z,100347.11
2022-07-30T09:13:39.352Z,100330.97
2022-07-30T09:16:26.216Z,100337.65
2022-07-30T09:18:56.902Z,100337.65
2022-07-30T09:21:29.006Z,100341.52
2022-07-30T09:24:07.869Z,100335.80
2022-07-30T09:27:03.579Z,100330.52
2022-07-30T09:29:35.732Z,100333.68
2022-07-30T09:32:08.727Z,100334.83
2022-07-30T09:34:40.018Z,100335.55
2022-07-30T09:37:16.641Z,100332.49
2022-07-30T09:39:58.986Z,100332.49
2022-07-30T09:42:28.651Z,100336.06
2022-07-30T09:45:08.839Z,100320.92
2022-07-30T09:47:47.402Z,100328.79
2022-07-30T09:50:29.937Z,100325.31
2022-07-30T09:52:59.475Z,100327.02
2022-07-30T09:55:41.220Z,100319.37
2022-07-30T09:58:13.032Z,100326.20
2022-07-30T10:00:44.702Z,100318.03
2022-07-30T10:03:33.682Z,100325.67
2022-07-30T10:06:01.413Z,100325.67
2022-07-30T10:08:49.546Z,100318.81
2022-07-30T10:11:23.580Z,100302.39
2022-07-30T10:14:07.509Z,100302.39
2022-07-30T10:16:39.397Z,100300.76
2022-07-30T10:19:17.963Z,100311.37
2022-07-30T10:21:50.681Z,100313.92
2022-07-30T10:24:27.481Z,100304.72
2022-07-30T10:26:56.058Z,100304.72
2022-07-30T10:29:33.850Z,100291.80
2022-07-30T10:32:02.451Z,100319.40
2022-07-30T10:37:29.258Z,100312.92
2022-07-30T10:40:23.076Z,100309.64
2022-07-30T10:46:54.592Z,100306.89
2022-07-30T10:49:25.439Z,100311.42
2022-07-30T10:51:59.296Z,100295.88
2022-07-30T10:54:40.189Z,100295.88
2022-07-30T10:57:22.830Z,100310.89
2022-07-30T11:00:04.049Z,100310.86
2022-07-30T11:02:44.963Z,100313.06
2022-07-30T11:05:27.053Z,100304.11
2022-07-30T11:08:03.922Z,100306.56
2022-07-30T11:10:40.635Z,100309.14
2022-07-30T11:13:14.313Z,100314.94
2022-07-30T11:16:00.559Z,100314.25
2022-07-30T11:18:35.699Z,100314.25
2022-07-30T11:21:28.720Z,100307.53
2022-07-30T11:24:09.422Z,100310.23
2022-07-30T11:26:43.321Z,100300.98
2022-07-30T11:29:51.261Z,100303.30
2022-07-30T11:32:33.628Z,100303.77
2022-07-30T11:35:19.678Z,100288.52
2022-07-30T11:38:18.715Z,100314.79
2022-07-30T11:40:58.354Z,100309.47
2022-07-30T11:43:36.830Z,100309.47
2022-07-30T11:46:29.718Z,100306.12
2022-07-30T11:49:27.726Z,100312.95
2022-07-30T11:51:58.325Z,100309.02
2022-07-30T11:57:50.252Z,100305.75
2022-07-30T12:00:22.128Z,100302.42
2022-07-30T12:02:56.320Z,100298.86
2022-07-30T12:05:29.060Z,100299.75
2022-07-30T12:08:03.300Z,100291.38
2022-07-30T12:10:39.693Z,100289.61
2022-07-30T12:13:20.198Z,100276.74
2022-07-30T12:15:59.120Z,100286.22
2022-07-30T12:18:32.946Z,100298.06
2022-07-30T12:21:10.679Z,100288.76
2022-07-30T12:23:55.110Z,100289.13
2022-07-30T12:26:34.983Z,100272.25
2022-07-30T12:29:12.432Z,100282.23
2022-07-30T12:31:43.670Z,100278.66
2022-07-30T12:34:22.853Z,100280.61
2022-07-30T12:36:59.155Z,100280.98
2022-07-30T12:39:34.157Z,100278.66
2022-07-30T12:42:07.724Z,100273.50
2022-07-30T12:44:43.918Z,100257.72
2022-07-30T12:47:27.848Z,100262.94
2022-07-30T12:50:26.509Z,100263.34
2022-07-30T12:53:13.209Z,100265.91
2022-07-30T12:56:27.797Z,100264.27
2022-07-30T13:05:10.563Z,100254.78
2022-07-30T13:07:55.881Z,100249.81
2022-07-30T13:10:36.179Z,100247.35
2022-07-30T13:13:11.589Z,100236.45
2022-07-30T13:15:54.128Z,100225.06
2022-07-30T13:18:33.380Z,100225.06
2022-07-30T13:21:06.366Z,100227.45
2022-07-30T13:26:26.824Z,100226.89
2022-07-30T13:29:01.735Z,100226.16
2022-07-30T13:31:42.987Z,100223.17
2022-07-30T13:34:15.232Z,100205.67
2022-07-30T13:36:49.326Z,100198.59
2022-07-30T13:39:27.728Z,100198.59
2022-07-30T13:42:10.088Z,100211.48
2022-07-30T13:44:41.086Z,100198.75
2022-07-30T13:47:17.570Z,100200.58
2022-07-30T13:49:49.843Z,100200.58
2022-07-30T13:52:21.053Z,100193.98
2022-07-30T13:54:55.376Z,100187.44
2022-07-30T13:57:26.058Z,100194.66
2022-07-30T13:59:59.555Z,100185.95
2022-07-30T14:02:32.749Z,100185.95
2022-07-30T14:05:12.629Z,100193.68
2022-07-30T14:07:46.020Z,100190.47
2022-07-30T14:10:19.523Z,100190.47
2022-07-30T14:12:58.544Z,100184.26
2022-07-30T14:15:36.291Z,100176.00
2022-07-30T14:18:08.430Z,100176.00
2022-07-30T14:21:01.405Z,100172.16
2022-07-30T14:23:33.826Z,100170.62
2022-07-30T14:26:07.469Z,100170.62
2022-07-30T14:28:38.121Z,100164.66
2022-07-30T14:31:09.356Z,100156.94
2022-07-30T14:33:50.350Z,100166.92
2022-07-30T14:36:21.512Z,100156.03
2022-07-30T14:38:56.661Z,100148.02
2022-07-30T14:41:34.396Z,100142.74
2022-07-30T14:44:05.194Z,100141.70
2022-07-30T14:46:37.414Z,100141.70
2022-07-30T14:49:15.742Z,100136.45
2022-07-30T14:51:52.211Z,100136.45
2022-07-30T14:54:19.911Z,100138.80
2022-07-30T14:56:54.908Z,100132.15
2022-07-30T14:59:25.626Z,100132.15
2022-07-30T15:01:58.468Z,100124.63
2022-07-30T15:04:42.847Z,100118.55
2022-07-30T15:07:21.431Z,100118.55
2022-07-30T15:09:52.659Z,100124.23
2022-07-30T15:12:30.570Z,100130.17
2022-07-30T15:15:02.437Z,100129.33
2022-07-30T15:17:35.032Z,100123.11
2022-07-30T15:20:06.104Z,100120.52
2022-07-30T15:22:37.488Z,100125.47
2022-07-30T15:25:09.891Z,100130.73
2022-07-30T15:27:44.359Z,100121.03
2022-07-30T15:30:18.863Z,100122.97
2022-07-30T15:32:52.171Z,100121.84
2022-07-30T15:35:23.253Z,100121.84
2022-07-30T15:37:58.454Z,100112.80
2022-07-30T15:40:34.959Z,100112.80
2022-07-30T15:43:09.822Z,100107.95
2022-07-30T15:45:51.036Z,100107.95
2022-07-30T15:48:24.650Z,100107.16
2022-07-30T15:50:48.461Z,100107.16
2022-07-30T15:53:23.380Z,100105.28
2022-07-30T15:55:59.738Z,100105.28
2022-07-30T15:58:35.735Z,100103.88
2022-07-30T16:01:07.436Z,100102.91
2022-07-30T16:03:38.549Z,100101.84
2022-07-30T16:06:09.002Z,100109.38
2022-07-30T16:08:40.089Z,100109.38
2022-07-30T16:11:11.054Z,100113.07
2022-07-30T16:13:42.248Z,100113.07
2022-07-30T16:16:12.541Z,100113.87
2022-07-30T16:18:43.604Z,100115.81
2022-07-30T16:21:14.773Z,100113.43
2022-07-30T16:23:46.060Z,100113.98
2022-07-30T16:26:24.307Z,100111.13
2022-07-30T16:29:03.809Z,100119.56
2022-07-30T16:31:36.928Z,100119.56
2022-07-30T16:34:10.104Z,100118.59
2022-07-30T16:36:41.010Z,100120.34
2022-07-30T16:39:11.414Z,100123.02
2022-07-30T16:41:42.566Z,100125.36
2022-07-30T16:44:14.046Z,100125.36
2022-07-30T16:46:48.306Z,100117.09
2022-07-30T16:49:22.302Z,100121.47
2022-07-30T16:51:53.849Z,100121.47
2022-07-30T16:54:27.090Z,100120.48
2022-07-30T16:56:59.950Z,100120.48
2022-07-30T16:59:32.170Z,100121.28
2022-07-30T17:02:02.777Z,100116.36
2022-07-30T17:04:33.310Z,100116.83
2022-07-30T17:07:04.495Z,100111.77
2022-07-30T17:09:34.942Z,100117.59
2022-07-30T17:12:12.266Z,100117.59
2022-07-30T17:14:42.132Z,100116.84
2022-07-30T17:17:14.409Z,100109.36
2022-07-30T17:19:45.215Z,100115.78
2022-07-30T17:22:15.541Z,100118.03
2022-07-30T17:24:49.449Z,100113.11
2022-07-30T17:27:24.660Z,100113.11
2022-07-30T17:29:55.579Z,100105.91
2022-07-30T17:32:30.996Z,100125.65
2022-07-30T17:35:03.075Z,100125.65
2022-07-30T17:37:36.711Z,100128.17
2022-07-30T17:40:27.625Z,100128.17
2022-07-30T17:42:42.624Z,100118.66
2022-07-30T17:45:14.076Z,100118.66
2022-07-30T17:47:44.920Z,100124.00
2022-07-30T17:50:15.946Z,100125.33
2022-07-30T17:52:47.513Z,100125.33
2022-07-30T17:55:18.689Z,100121.62
2022-07-30T17:57:49.037Z,100121.62
2022-07-30T18:00:22.125Z,100122.30
2022-07-30T18:02:53.792Z,100122.30
2022-07-30T18:05:24.519Z,100114.02
2022-07-30T18:07:55.517Z,100111.61
2022-07-30T18:10:28.493Z,100111.42
2022-07-30T18:13:22.496Z,100110.19
2022-07-30T18:15:36.355Z,100110.19
2022-07-30T18:18:07.089Z,100116.09
2022-07-30T18:20:37.772Z,100108.28
2022-07-30T18:23:14.237Z,100107.00
2022-07-30T18:25:51.560Z,100107.00
2022-07-30T18:28:15.578Z,100109.33
2022-07-30T18:30:47.500Z,100109.33
2022-07-30T18:33:18.044Z,100107.22
2022-07-30T18:35:48.552Z,100107.22
2022-07-30T18:38:19.118Z,100115.07
2022-07-30T18:40:49.716Z,100115.07
2022-07-30T18:43:20.430Z,100115.80
2022-07-30T18:45:52.003Z,100123.92
2022-07-30T18:48:22.822Z,100123.92
2022-07-30T18:50:53.222Z,100130.59
2022-07-30T18:53:23.842Z,100130.59
2022-07-30T18:55:55.380Z,100133.80
2022-07-30T18:58:25.883Z,100133.80
2022-07-30T19:00:59.400Z,100125.91
2022-07-30T19:03:33.133Z,100127.95
2022-07-30T19:06:04.666Z,100127.95
2022-07-30T19:08:35.733Z,100134.47
2022-07-30T19:11:06.022Z,100140.46
2022-07-30T19:13:37.085Z,100133.88
2022-07-30T19:16:08.542Z,100133.88
2022-07-30T19:18:39.267Z,100127.83
2022-07-30T19:21:13.918Z,100127.83
2022-07-30T19:23:42.268Z,100128.89
2022-07-30T19:26:12.678Z,100129.75
2022-07-30T19:28:43.880Z,100131.36
2022-07-30T19:31:14.365Z,100136.84
2022-07-30T19:33:45.399Z,100136.84
2022-07-30T19:36:19.651Z,100138.08
2022-07-30T19:38:50.087Z,100138.56
2022-07-30T19:41:20.475Z,100138.56
2022-07-30T19:43:57.836Z,100131.52
2022-07-30T19:46:24.562Z,100131.52
2022-07-30T19:48:54.995Z,100134.36
2022-07-30T19:52:10.639Z,100133.58
2022-07-30T19:53:59.005Z,100135.19
2022-07-30T19:56:29.614Z,100135.63
2022-07-30T19:59:00.331Z,100135.63
2022-07-30T20:01:40.363Z,100131.59
2022-07-30T20:04:05.004Z,100131.59
2022-07-30T20:06:38.401Z,100127.76
2022-07-30T20:09:14.090Z,100131.44
2022-07-30T20:11:41.306Z,100138.70
2022-07-30T20:14:16.187Z,100133.45
2022-07-30T20:16:46.625Z,100133.45
2022-07-30T20:19:17.250Z,100143.77
2022-07-30T20:21:56.547Z,100143.17
2022-07-30T20:24:20.027Z,100140.96
2022-07-30T20:26:51.965Z,100140.76
2022-07-30T20:29:22.378Z,100140.76
2022-07-30T20:31:52.997Z,100142.41
2022-07-30T20:34:25.969Z,100135.70
2022-07-30T20:36:56.828Z,100131.27
2022-07-30T20:39:28.120Z,100126.20
2022-07-30T20:41:58.755Z,100126.20
2022-07-30T20:44:30.102Z,100134.94
2022-07-30T20:47:08.178Z,100134.94
2022-07-30T20:49:35.779Z,100129.88
2022-07-30T20:52:07.763Z,100136.14
2022-07-30T20:54:45.089Z,100126.64
2022-07-30T20:57:15.388Z,100129.06
2022-07-30T20:59:46.413Z,100141.63
2022-07-30T21:02:16.857Z,100141.63
2022-07-30T21:04:47.573Z,100126.41
2022-07-30T21:07:20.549Z,100126.41
2022-07-30T21:09:52.622Z,100126.20
2022-07-30T21:12:32.581Z,100129.45
2022-07-30T21:14:55.796Z,100127.01
2022-07-30T21:17:26.231Z,100136.30
2022-07-30T21:20:01.070Z,100130.66
2022-07-30T21:22:31.770Z,100130.66
2022-07-30T21:25:02.166Z,100120.94
2022-07-30T21:27:34.328Z,100121.95
2022-07-30T21:30:05.542Z,100121.95
2022-07-30T21:32:36.312Z,100118.91
2022-07-30T21:35:08.282Z,100117.30
2022-07-30T21:37:42.873Z,100117.50
2022-07-30T21:40:12.133Z,100117.30
2022-07-30T21:42:48.761Z,100112.03
2022-07-30T21:45:14.520Z,100112.03
2022-07-30T21:47:47.766Z,100117.47
2022-07-30T21:50:19.138Z,100114.84
2022-07-30T21:52:50.226Z,100111.78
2022-07-30T21:55:21.817Z,100121.48
2022-07-30T21:57:52.736Z,100112.20
2022-07-30T22:00:26.169Z,100119.87
2022-07-30T22:02:59.257Z,100121.87
2022-07-30T22:08:02.529Z,100107.14
2022-07-30T22:10:34.197Z,100107.14
2022-07-30T22:13:07.590Z,100106.66
2022-07-30T22:15:40.335Z,100106.66
2022-07-30T22:18:11.712Z,100103.63
2022-07-30T22:20:42.600Z,100103.43
2022-07-30T22:23:13.131Z,100103.43
2022-07-30T22:25:43.933Z,100100.60
2022-07-30T22:28:36.351Z,100106.61
2022-07-30T22:31:12.499Z,100106.61
2022-07-30T22:33:39.760Z,100100.33
2022-07-30T22:36:10.247Z,100103.94
2022-07-30T22:38:41.953Z,100101.11
2022-07-30T22:41:14.109Z,100098.67
2022-07-30T22:43:44.720Z,100098.25
2022-07-30T22:46:30.563Z,100106.30
2022-07-30T22:48:48.316Z,100101.23
2022-07-30T22:51:18.972Z,100101.23
2022-07-30T22:54:02.931Z,100096.11
2022-07-30T22:56:23.970Z,100093.70
2022-07-30T22:58:53.522Z,100093.70
2022-07-30T23:01:24.564Z,100088.75
2022-07-30T23:03:54.843Z,100088.75
2022-07-30T23:06:25.498Z,100094.19
2022-07-30T23:08:56.508Z,100094.19
2022-07-30T23:11:37.097Z,100083.26
2022-07-30T23:12:28.193Z,100117.42
2022-07-30T23:13:59.338Z,100088.70
2022-07-30T23:16:29.694Z,100088.70
2022-07-30T23:19:00.222Z,100081.99
2022-07-30T23:21:30.547Z,100081.99
2022-07-30T23:24:00.879Z,100084.48
2022-07-30T23:26:31.370Z,100076.63
2022-07-30T23:29:01.854Z,100076.63
2022-07-30T23:31:32.304Z,100082.30
2022-07-30T23:34:02.794Z,100081.80
2022-07-30T23:36:35.053Z,100081.34
2022-07-30T23:39:05.568Z,100081.34
2022-07-30T23:41:36.905Z,100086.73
2022-07-30T23:44:07.199Z,100085.94
2022-07-30T23:46:38.488Z,100081.30
2022-07-30T23:49:08.969Z,100077.05
2022-07-30T23:51:39.738Z,100081.47
2022-07-30T23:54:10.272Z,100082.06
2022-07-30T23:56:40.684Z,100082.06
2022-07-30T23:59:11.735Z,100087.07
